createdAt,value
2018-08-20T00:01:22.863Z,9.27
2018-08-20T00:03:51.086Z,7.77
2018-08-20T00:06:19.437Z,8.60
2018-08-20T00:08:47.500Z,9.37
2018-08-20T00:11:15.763Z,8.70
2018-08-20T00:13:43.772Z,8.00
2018-08-20T00:16:12.068Z,8.50
2018-08-20T00:18:40.071Z,8.70
2018-08-20T00:21:08.073Z,9.00
2018-08-20T00:23:36.135Z,9.43
2018-08-20T00:26:04.170Z,8.70
2018-08-20T00:28:32.462Z,8.53
2018-08-20T00:31:00.652Z,9.60
2018-08-20T00:33:28.774Z,8.40
2018-08-20T00:35:56.864Z,8.73
2018-08-20T00:38:24.871Z,8.20
2018-08-20T00:40:52.881Z,9.00
2018-08-20T00:43:21.010Z,9.20
2018-08-20T00:45:49.102Z,7.80
2018-08-20T00:48:17.133Z,8.87
2018-08-20T00:50:45.166Z,8.03
2018-08-20T00:53:13.218Z,8.73
2018-08-20T00:55:41.306Z,7.50
2018-08-20T00:58:09.412Z,8.30
2018-08-20T01:00:37.414Z,8.57
2018-08-20T01:03:05.476Z,8.50
2018-08-20T01:05:33.487Z,9.50
2018-08-20T01:08:01.550Z,9.80
2018-08-20T01:10:29.632Z,7.47
2018-08-20T01:12:57.666Z,8.50
2018-08-20T01:15:25.702Z,8.17
2018-08-20T01:17:53.782Z,7.17
2018-08-20T01:20:21.812Z,9.30
2018-08-20T01:22:49.844Z,8.97
2018-08-20T01:25:17.930Z,8.60
2018-08-20T01:27:50.620Z,7.80
2018-08-20T01:30:18.685Z,8.53
2018-08-20T01:32:46.693Z,8.40
2018-08-20T01:35:26.549Z,7.80
2018-08-20T01:37:54.734Z,7.37
2018-08-20T01:40:22.826Z,8.33
2018-08-20T01:42:50.861Z,8.50
2018-08-20T01:45:18.986Z,8.10
2018-08-20T01:47:47.286Z,9.20
2018-08-20T01:50:15.362Z,9.00
2018-08-20T01:52:43.364Z,7.90
2018-08-20T01:55:11.437Z,8.93
2018-08-20T01:57:39.429Z,9.30
2018-08-20T02:00:07.597Z,10.63
2018-08-20T02:02:35.690Z,9.60
2018-08-20T02:05:04.381Z,9.60
2018-08-20T02:07:32.382Z,7.87
2018-08-20T02:10:00.421Z,7.80
2018-08-20T02:12:28.529Z,8.47
2018-08-20T02:14:56.574Z,6.80
2018-08-20T02:17:24.597Z,6.90
2018-08-20T02:19:52.682Z,7.73
2018-08-20T02:22:21.133Z,7.50
2018-08-20T02:24:49.158Z,6.00
2018-08-20T02:27:17.340Z,6.57
2018-08-20T02:29:45.429Z,6.60
2018-08-20T02:32:13.460Z,6.27
2018-08-20T02:34:41.605Z,6.90
2018-08-20T02:37:09.638Z,6.00
2018-08-20T02:39:37.934Z,6.73
2018-08-20T02:42:06.053Z,7.60
2018-08-20T02:44:34.138Z,5.83
2018-08-20T02:47:02.173Z,6.00
2018-08-20T02:49:30.183Z,7.07
2018-08-20T02:51:58.289Z,6.03
2018-08-20T02:54:26.328Z,6.47
2018-08-20T02:56:54.503Z,5.33
2018-08-20T02:59:22.542Z,6.33
2018-08-20T03:01:50.550Z,6.80
2018-08-20T03:04:19.322Z,6.40
2018-08-20T03:06:47.409Z,6.30
2018-08-20T03:09:16.201Z,6.87
2018-08-20T03:11:44.606Z,6.63
2018-08-20T03:14:13.085Z,6.53
2018-08-20T03:16:41.090Z,7.77
2018-08-20T03:19:10.110Z,6.77
2018-08-20T03:21:38.137Z,6.90
2018-08-20T03:24:06.454Z,5.93
2018-08-20T03:26:34.513Z,7.17
2018-08-20T03:29:02.621Z,7.00
2018-08-20T03:31:30.806Z,6.30
2018-08-20T03:33:58.886Z,7.10
2018-08-20T03:36:27.005Z,7.00
2018-08-20T03:38:55.033Z,6.23
2018-08-20T03:41:23.252Z,7.20
2018-08-20T03:43:51.634Z,7.00
2018-08-20T03:46:20.030Z,7.57
2018-08-20T03:48:48.085Z,7.07
2018-08-20T03:51:16.095Z,8.70
2018-08-20T03:53:44.121Z,7.10
2018-08-20T03:56:12.366Z,7.70
2018-08-20T03:58:40.366Z,8.13
2018-08-20T04:01:08.434Z,7.57
2018-08-20T04:03:36.498Z,8.97
2018-08-20T04:06:04.655Z,8.17
2018-08-20T04:08:32.698Z,7.10
2018-08-20T04:11:00.713Z,8.90
2018-08-20T04:13:28.757Z,7.90
2018-08-20T04:15:56.837Z,8.60
2018-08-20T04:18:24.866Z,7.13
2018-08-20T04:20:52.915Z,9.57
2018-08-20T04:23:20.991Z,8.13
2018-08-20T04:25:49.050Z,8.33
2018-08-20T04:28:17.085Z,9.53
2018-08-20T04:30:45.290Z,7.63
2018-08-20T04:33:13.434Z,8.57
2018-08-20T04:35:41.437Z,7.10
2018-08-20T04:38:09.489Z,6.80
2018-08-20T04:40:37.577Z,8.60
2018-08-20T04:43:06.093Z,8.43
2018-08-20T04:45:34.169Z,9.67
2018-08-20T04:48:02.202Z,8.10
2018-08-20T04:50:30.624Z,8.10
2018-08-20T04:52:58.726Z,7.93
2018-08-20T04:55:26.714Z,9.10
2018-08-20T04:57:54.786Z,9.33
2018-08-20T05:00:22.822Z,8.27
2018-08-20T05:02:50.858Z,7.63
2018-08-20T05:05:18.850Z,7.63
2018-08-20T05:07:46.910Z,8.07
2018-08-20T05:10:14.913Z,8.30
2018-08-20T05:12:42.981Z,7.67
2018-08-20T05:15:11.267Z,7.30
2018-08-20T05:17:39.266Z,8.67
2018-08-20T05:20:07.634Z,7.27
2018-08-20T05:22:35.857Z,9.20
2018-08-20T05:25:04.326Z,8.53
2018-08-20T05:27:32.425Z,8.50
2018-08-20T05:30:00.417Z,8.07
2018-08-20T05:32:28.469Z,8.33
2018-08-20T05:34:56.657Z,8.87
2018-08-20T05:37:24.658Z,8.97
2018-08-20T05:39:52.721Z,9.00
2018-08-20T05:42:20.765Z,9.50
2018-08-20T05:44:48.905Z,7.63
2018-08-20T05:47:16.877Z,8.30
2018-08-20T05:49:45.161Z,7.47
2018-08-20T05:52:13.154Z,9.40
2018-08-20T05:54:41.244Z,8.03
2018-08-20T05:57:09.298Z,8.10
2018-08-20T05:59:37.398Z,7.83
2018-08-20T06:02:05.421Z,7.27
2018-08-20T06:04:33.574Z,8.87
2018-08-20T06:07:01.660Z,8.30
2018-08-20T06:09:29.740Z,7.50
2018-08-20T06:11:57.817Z,7.03
2018-08-20T06:14:26.418Z,8.60
2018-08-20T06:16:54.441Z,7.50
2018-08-20T06:19:22.437Z,7.63
2018-08-20T06:21:50.474Z,7.93
2018-08-20T06:24:18.853Z,7.17
2018-08-20T06:26:46.897Z,7.90
2018-08-20T06:29:14.923Z,8.33
2018-08-20T06:31:43.009Z,7.57
2018-08-20T06:34:11.055Z,7.13
2018-08-20T06:36:39.069Z,7.37
2018-08-20T06:39:08.077Z,8.23
2018-08-20T06:41:36.087Z,6.97
2018-08-20T06:44:04.558Z,7.63
2018-08-20T06:46:32.633Z,7.13
2018-08-20T06:49:00.639Z,7.33
2018-08-20T06:51:28.630Z,7.87
2018-08-20T06:53:56.687Z,8.30
2018-08-20T06:56:24.744Z,7.27
2018-08-20T06:58:52.781Z,6.83
2018-08-20T07:01:20.838Z,8.47
2018-08-20T07:03:48.921Z,7.67
2018-08-20T07:06:17.265Z,6.03
2018-08-20T07:08:45.305Z,5.60
2018-08-20T07:11:13.301Z,6.03
2018-08-20T07:13:41.354Z,6.67
2018-08-20T07:16:09.545Z,6.17
2018-08-20T07:18:37.534Z,7.00
2018-08-20T07:21:05.572Z,5.90
2018-08-20T07:23:33.674Z,6.20
2018-08-20T07:26:01.611Z,6.67
2018-08-20T07:28:29.648Z,6.63
2018-08-20T07:30:57.746Z,6.20
2018-08-20T07:33:25.837Z,6.10
2018-08-20T07:35:53.922Z,7.27
2018-08-20T07:38:21.954Z,5.80
2018-08-20T07:40:49.974Z,7.60
2018-08-20T07:43:18.015Z,5.17
2018-08-20T07:45:46.058Z,6.40
2018-08-20T07:48:14.430Z,5.97
2018-08-20T07:50:42.457Z,6.60
2018-08-20T07:53:10.497Z,6.37
2018-08-20T07:55:38.708Z,6.33
2018-08-20T07:58:07.026Z,7.40
2018-08-20T08:00:35.058Z,5.87
2018-08-20T08:03:03.153Z,6.90
2018-08-20T08:05:31.149Z,6.57
2018-08-20T08:07:59.141Z,7.40
2018-08-20T08:10:27.293Z,7.43
2018-08-20T08:12:55.298Z,8.93
2018-08-20T08:15:23.293Z,6.83
2018-08-20T08:17:51.329Z,7.43
2018-08-20T08:20:19.424Z,7.00
2018-08-20T08:22:47.426Z,7.60
2018-08-20T08:25:15.468Z,6.20
2018-08-20T08:27:43.506Z,7.57
2018-08-20T08:30:15.525Z,6.90
2018-08-20T08:32:43.571Z,8.67
2018-08-20T08:35:12.637Z,6.30
2018-08-20T08:37:40.930Z,7.40
2018-08-20T08:40:10.034Z,8.53
2018-08-20T08:42:38.070Z,7.83
2018-08-20T08:45:11.235Z,6.10
2018-08-20T08:47:39.313Z,6.40
2018-08-20T08:50:07.702Z,6.50
2018-08-20T08:52:36.030Z,4.33
2018-08-20T08:55:04.295Z,5.60
2018-08-20T08:57:32.378Z,4.93
2018-08-20T09:00:00.378Z,3.80
2018-08-20T09:02:28.430Z,3.70
2018-08-20T09:04:56.426Z,2.93
2018-08-20T09:07:24.426Z,2.80
2018-08-20T09:09:52.461Z,2.90
2018-08-20T09:12:20.458Z,3.40
2018-08-20T09:14:48.750Z,3.07
2018-08-20T09:17:16.842Z,2.60
2018-08-20T09:19:44.930Z,2.17
2018-08-20T09:22:12.923Z,2.10
2018-08-20T09:24:40.986Z,2.00
2018-08-20T09:27:09.273Z,1.97
2018-08-20T09:29:37.278Z,1.83
2018-08-20T09:32:05.273Z,1.87
2018-08-20T09:34:33.350Z,1.73
2018-08-20T09:37:01.410Z,1.90
2018-08-20T09:39:29.497Z,1.30
2018-08-20T09:41:57.505Z,1.67
2018-08-20T09:44:25.558Z,2.20
2018-08-20T09:46:53.597Z,2.40
2018-08-20T09:49:21.689Z,1.33
2018-08-20T09:51:49.721Z,1.80
2018-08-20T09:54:17.794Z,1.60
2018-08-20T09:56:45.833Z,1.60
2018-08-20T09:59:13.861Z,2.27
2018-08-20T10:01:41.891Z,2.23
2018-08-20T10:04:09.890Z,1.53
2018-08-20T10:06:38.001Z,1.90
2018-08-20T10:09:06.405Z,2.23
2018-08-20T10:11:34.792Z,1.90
2018-08-20T10:14:02.897Z,2.50
2018-08-20T10:16:30.902Z,1.67
2018-08-20T10:18:58.979Z,2.07
2018-08-20T10:21:27.030Z,1.70
2018-08-20T10:23:55.029Z,1.50
2018-08-20T10:26:23.091Z,1.77
2018-08-20T10:28:51.085Z,1.70
2018-08-20T10:31:19.161Z,2.53
2018-08-20T10:33:47.224Z,1.60
2018-08-20T10:36:15.325Z,1.93
2018-08-20T10:38:43.720Z,2.37
2018-08-20T10:41:11.798Z,1.90
2018-08-20T10:43:39.826Z,1.93
2018-08-20T10:46:13.226Z,1.73
2018-08-20T10:48:41.222Z,1.63
2018-08-20T10:51:09.462Z,1.53
2018-08-20T10:53:37.541Z,1.30
2018-08-20T10:56:05.745Z,1.77
2018-08-20T10:58:34.125Z,2.03
2018-08-20T11:01:02.130Z,2.20
2018-08-20T11:03:30.126Z,2.00
2018-08-20T11:05:58.638Z,1.70
2018-08-20T11:08:26.642Z,2.87
2018-08-20T11:10:54.756Z,2.23
2018-08-20T11:13:22.733Z,2.50
2018-08-20T11:15:50.818Z,2.60
2018-08-20T11:18:19.230Z,2.73
2018-08-20T11:20:47.209Z,2.50
2018-08-20T11:23:15.277Z,2.40
2018-08-20T11:25:43.358Z,2.33
2018-08-20T11:28:11.442Z,1.93
2018-08-20T11:30:39.525Z,2.37
2018-08-20T11:33:07.521Z,3.30
2018-08-20T11:35:35.562Z,2.57
2018-08-20T11:38:03.590Z,2.17
2018-08-20T11:40:31.657Z,3.20
2018-08-20T11:42:59.689Z,2.20
2018-08-20T11:45:27.692Z,2.73
2018-08-20T11:47:55.728Z,2.50
2018-08-20T11:50:23.726Z,2.20
2018-08-20T11:52:51.785Z,2.60
2018-08-20T11:55:19.859Z,2.80
2018-08-20T11:57:47.948Z,2.27
2018-08-20T12:00:16.045Z,2.97
2018-08-20T12:02:44.039Z,2.20
2018-08-20T12:05:12.078Z,2.10
2018-08-20T12:07:40.074Z,2.13
2018-08-20T12:10:09.131Z,1.67
2018-08-20T12:12:37.668Z,1.70
2018-08-20T12:15:06.894Z,1.60
2018-08-20T12:17:34.972Z,1.23
2018-08-20T12:20:03.370Z,1.20
2018-08-20T12:22:31.499Z,1.40
2018-08-20T12:24:59.460Z,1.53
2018-08-20T12:27:27.826Z,1.40
2018-08-20T12:29:55.821Z,1.70
2018-08-20T12:32:23.812Z,1.83
2018-08-20T12:34:51.997Z,1.53
2018-08-20T12:37:20.061Z,1.10
2018-08-20T12:39:48.546Z,2.20
2018-08-20T12:42:16.734Z,1.33
2018-08-20T12:44:44.742Z,1.50
2018-08-20T12:47:12.772Z,1.63
2018-08-20T12:49:40.805Z,2.70
2018-08-20T12:52:09.582Z,2.03
2018-08-20T12:54:37.669Z,2.23
2018-08-20T12:57:05.670Z,2.33
2018-08-20T12:59:34.549Z,2.60
2018-08-20T13:02:02.549Z,2.60
2018-08-20T13:04:30.624Z,2.60
2018-08-20T13:06:58.646Z,3.37
2018-08-20T13:09:26.673Z,2.80
2018-08-20T13:11:54.973Z,2.83
2018-08-20T13:14:23.090Z,3.13
2018-08-20T13:16:51.082Z,2.67
2018-08-20T13:19:19.430Z,2.40
2018-08-20T13:21:47.514Z,1.57
2018-08-20T13:24:15.702Z,2.50
2018-08-20T13:26:43.887Z,1.50
2018-08-20T13:29:11.987Z,1.90
2018-08-20T13:31:40.377Z,1.50
2018-08-20T13:34:08.370Z,1.97
2018-08-20T13:36:36.433Z,1.70
2018-08-20T13:39:06.203Z,1.70
2018-08-20T13:41:34.222Z,2.37
2018-08-20T13:44:02.318Z,1.43
2018-08-20T13:46:30.286Z,1.30
2018-08-20T13:48:58.594Z,1.53
2018-08-20T13:51:26.585Z,1.93
2018-08-20T13:53:54.586Z,1.43
2018-08-20T13:56:22.626Z,1.90
2018-08-20T13:58:50.930Z,2.70
2018-08-20T14:01:18.926Z,1.53
2018-08-20T14:03:47.098Z,1.10
2018-08-20T14:06:15.125Z,1.30
2018-08-20T14:08:43.200Z,1.40
2018-08-20T14:11:11.550Z,1.70
2018-08-20T14:13:39.553Z,1.57
2018-08-20T14:16:07.546Z,1.70
2018-08-20T14:18:36.015Z,1.30
2018-08-20T14:21:11.457Z,1.60
2018-08-20T14:23:41.845Z,1.97
2018-08-20T14:26:09.896Z,2.10
2018-08-20T14:28:37.904Z,1.73
2018-08-20T14:31:05.942Z,2.10
2018-08-20T14:33:34.255Z,1.50
2018-08-20T14:36:02.529Z,1.60
2018-08-20T14:38:30.761Z,1.23
2018-08-20T14:40:58.791Z,1.70
2018-08-20T14:43:26.913Z,1.40
2018-08-20T14:46:00.544Z,1.90
2018-08-20T14:48:28.613Z,1.90
2018-08-20T14:50:56.637Z,1.40
2018-08-20T14:53:24.814Z,1.40
2018-08-20T14:55:52.853Z,1.27
2018-08-20T14:58:21.437Z,1.20
2018-08-20T15:00:49.521Z,1.47
2018-08-20T15:03:17.610Z,1.43
2018-08-20T15:05:45.643Z,1.30
2018-08-20T15:08:13.633Z,1.50
2018-08-20T15:10:41.754Z,1.60
2018-08-20T15:13:09.842Z,1.10
2018-08-20T15:15:37.960Z,1.60
2018-08-20T15:18:06.122Z,1.60
2018-08-20T15:20:34.190Z,1.90
2018-08-20T15:23:02.555Z,1.17
2018-08-20T15:25:30.679Z,1.17
2018-08-20T15:27:58.678Z,1.00
2018-08-20T15:30:27.483Z,0.83
2018-08-20T15:32:55.494Z,1.20
2018-08-20T15:35:23.631Z,1.20
2018-08-20T15:37:51.790Z,1.13
2018-08-20T15:40:20.079Z,1.00
2018-08-20T15:42:48.092Z,1.63
2018-08-20T15:45:16.085Z,1.30
2018-08-20T15:47:44.186Z,1.20
2018-08-20T15:50:12.533Z,1.20
2018-08-20T15:52:40.565Z,1.20
2018-08-20T15:55:09.458Z,1.43
2018-08-20T15:57:37.608Z,1.40
2018-08-20T16:00:06.903Z,1.10
2018-08-20T16:02:35.020Z,1.10
2018-08-20T16:05:03.193Z,1.20
2018-08-20T16:07:31.186Z,1.00
2018-08-20T16:09:59.267Z,1.00
2018-08-20T16:12:27.345Z,1.23
2018-08-20T16:14:55.358Z,1.30
2018-08-20T16:17:23.362Z,1.20
2018-08-20T16:19:51.393Z,1.20
2018-08-20T16:22:19.577Z,1.23
2018-08-20T16:24:47.661Z,1.00
2018-08-20T16:27:15.690Z,1.30
2018-08-20T16:29:43.829Z,1.93
2018-08-20T16:32:12.221Z,0.97
2018-08-20T16:34:40.306Z,1.00
2018-08-20T16:37:08.314Z,1.07
2018-08-20T16:39:36.410Z,1.50
2018-08-20T16:42:04.357Z,1.23
2018-08-20T16:44:32.404Z,1.00
2018-08-20T16:47:00.401Z,1.10
2018-08-20T16:49:28.501Z,1.00
2018-08-20T16:51:56.533Z,1.07
2018-08-20T16:54:24.678Z,0.90
2018-08-20T16:56:52.762Z,1.00
2018-08-20T16:59:20.753Z,1.13
2018-08-20T17:01:48.826Z,1.10
2018-08-20T17:04:28.890Z,1.20
2018-08-20T17:06:58.817Z,1.67
2018-08-20T17:09:27.178Z,1.17
2018-08-20T17:11:55.297Z,1.40
2018-08-20T17:14:23.378Z,1.70
2018-08-20T17:16:51.399Z,1.20
2018-08-20T17:19:19.655Z,1.03
2018-08-20T17:21:47.733Z,1.50
2018-08-20T17:24:24.417Z,1.20
2018-08-20T17:26:52.713Z,1.63
2018-08-20T17:29:22.130Z,1.37
2018-08-20T17:31:50.218Z,1.63
2018-08-20T17:34:18.566Z,1.23
2018-08-20T17:36:46.681Z,1.17
2018-08-20T17:39:15.345Z,1.17
2018-08-20T17:41:43.435Z,1.17
2018-08-20T17:44:11.522Z,1.40
2018-08-20T17:46:39.938Z,1.10
2018-08-20T17:49:10.234Z,1.90
2018-08-20T17:51:38.373Z,1.63
2018-08-20T17:54:06.413Z,1.70
2018-08-20T17:56:34.502Z,1.60
2018-08-20T17:59:10.741Z,1.50
2018-08-20T18:01:38.777Z,1.60
2018-08-20T18:04:07.304Z,1.37
2018-08-20T18:06:46.204Z,1.47
2018-08-20T18:09:14.634Z,1.13
2018-08-20T18:11:48.213Z,1.40
2018-08-20T18:14:16.461Z,1.60
2018-08-20T18:16:44.458Z,1.50
2018-08-20T18:19:12.551Z,1.80
2018-08-20T18:21:40.550Z,1.97
2018-08-20T18:24:12.913Z,1.73
2018-08-20T18:26:48.354Z,1.70
2018-08-20T18:29:16.374Z,1.50
2018-08-20T18:31:44.414Z,1.50
2018-08-20T18:34:12.444Z,1.70
2018-08-20T18:36:40.761Z,1.30
2018-08-20T18:39:10.118Z,2.00
2018-08-20T18:42:11.246Z,2.97
2018-08-20T18:44:39.274Z,1.87
2018-08-20T18:47:08.544Z,1.30
2018-08-20T18:49:39.702Z,1.70
2018-08-20T18:52:11.160Z,1.30
2018-08-20T18:54:41.561Z,1.57
2018-08-20T18:57:09.558Z,1.30
2018-08-20T18:59:38.840Z,1.40
2018-08-20T19:02:08.854Z,1.90
2018-08-20T19:04:47.806Z,1.83
2018-08-20T19:07:16.454Z,1.77
2018-08-20T19:09:47.921Z,1.80
2018-08-20T19:12:15.971Z,1.70
2018-08-20T19:14:44.358Z,1.50
2018-08-20T19:17:17.518Z,1.70
2018-08-20T19:19:47.321Z,1.53
2018-08-20T19:22:20.774Z,1.53
2018-08-20T19:24:48.777Z,2.00
2018-08-20T19:27:17.206Z,2.57
2018-08-20T19:29:45.397Z,2.20
2018-08-20T19:32:13.486Z,1.50
2018-08-20T19:34:41.524Z,1.63
2018-08-20T19:37:09.548Z,1.87
2018-08-20T19:39:37.741Z,1.70
2018-08-20T19:42:06.608Z,1.73
2018-08-20T19:44:34.713Z,1.73
2018-08-20T19:47:02.822Z,1.73
2018-08-20T19:49:31.216Z,1.73
2018-08-20T19:51:59.214Z,2.23
2018-08-20T19:54:27.360Z,2.60
2018-08-20T19:56:55.457Z,1.50
2018-08-20T19:59:28.905Z,1.90
2018-08-20T20:01:57.010Z,2.10
2018-08-20T20:04:25.389Z,2.50
2018-08-20T20:07:05.229Z,1.70
2018-08-20T20:09:35.673Z,2.30
2018-08-20T20:12:03.730Z,2.40
2018-08-20T20:14:37.489Z,1.93
2018-08-20T20:17:06.161Z,2.17
2018-08-20T20:19:34.549Z,2.03
2018-08-20T20:22:02.622Z,2.60
2018-08-20T20:24:30.671Z,2.20
2018-08-20T20:26:58.746Z,2.03
2018-08-20T20:29:26.929Z,2.57
2018-08-20T20:31:55.054Z,2.30
2018-08-20T20:34:23.159Z,1.97
2018-08-20T20:36:51.217Z,1.90
2018-08-20T20:39:19.290Z,2.20
2018-08-20T20:41:47.402Z,2.53
2018-08-20T20:44:18.805Z,1.70
2018-08-20T20:46:46.846Z,1.70
2018-08-20T20:49:14.896Z,1.67
2018-08-20T20:51:43.231Z,2.33
2018-08-20T20:54:11.702Z,1.80
2018-08-20T20:56:39.766Z,1.63
2018-08-20T20:59:08.237Z,2.00
2018-08-20T21:01:36.526Z,1.70
2018-08-20T21:04:06.976Z,2.27
2018-08-20T21:06:37.065Z,1.67
2018-08-20T21:09:07.877Z,1.57
2018-08-20T21:11:36.063Z,2.30
2018-08-20T21:14:04.224Z,1.73
2018-08-20T21:16:32.365Z,1.70
2018-08-20T21:19:02.714Z,1.93
2018-08-20T21:21:32.013Z,2.20
2018-08-20T21:24:00.158Z,2.40
2018-08-20T21:26:28.243Z,2.10
2018-08-20T21:28:57.178Z,2.13
2018-08-20T21:31:26.459Z,2.00
2018-08-20T21:33:58.518Z,1.77
2018-08-20T21:36:26.981Z,2.13
2018-08-20T21:38:54.991Z,2.03
2018-08-20T21:41:24.769Z,2.47
2018-08-20T21:43:53.188Z,1.80
2018-08-20T21:46:21.226Z,1.93
2018-08-20T21:48:49.342Z,2.33
2018-08-20T21:51:24.106Z,2.50
2018-08-20T21:53:52.103Z,1.70
2018-08-20T21:56:20.156Z,2.03
2018-08-20T21:58:48.233Z,2.63
2018-08-20T22:01:17.130Z,1.70
2018-08-20T22:03:45.313Z,1.80
2018-08-20T22:06:13.769Z,1.97
2018-08-20T22:08:42.025Z,2.80
2018-08-20T22:11:10.799Z,1.93
2018-08-20T22:13:39.089Z,2.27
2018-08-20T22:16:17.039Z,2.40
2018-08-20T22:18:47.340Z,2.27
2018-08-20T22:21:18.301Z,2.37
2018-08-20T22:23:50.226Z,1.60
2018-08-20T22:26:19.817Z,1.30
2018-08-20T22:28:49.737Z,1.80
2018-08-20T22:31:17.977Z,1.50
2018-08-20T22:33:52.443Z,1.13
2018-08-20T22:36:20.602Z,1.20
2018-08-20T22:38:51.505Z,1.40
2018-08-20T22:41:19.924Z,1.00
2018-08-20T22:43:48.150Z,1.10
2018-08-20T22:46:16.269Z,1.30
2018-08-20T22:48:44.427Z,1.30
2018-08-20T22:51:15.817Z,1.30
2018-08-20T22:53:52.013Z,1.00
2018-08-20T22:56:21.583Z,0.90
2018-08-20T22:58:49.598Z,1.40
2018-08-20T23:01:17.653Z,1.00
2018-08-20T23:03:45.829Z,1.20
2018-08-20T23:06:13.918Z,0.90
2018-08-20T23:08:42.008Z,0.73
2018-08-20T23:11:10.112Z,1.30
2018-08-20T23:13:38.477Z,0.97
2018-08-20T23:16:06.473Z,1.03
2018-08-20T23:18:34.475Z,1.00
2018-08-20T23:21:02.610Z,1.00
2018-08-20T23:23:35.517Z,0.90
2018-08-20T23:26:06.546Z,0.80
2018-08-20T23:28:36.227Z,0.80
2018-08-20T23:31:04.212Z,1.17
2018-08-20T23:33:33.017Z,1.00
2018-08-20T23:36:01.170Z,0.70
2018-08-20T23:38:29.871Z,1.07
2018-08-20T23:40:58.873Z,0.80
2018-08-20T23:43:27.175Z,0.80
2018-08-20T23:45:55.342Z,0.90
2018-08-20T23:48:23.410Z,1.10
2018-08-20T23:50:57.625Z,0.93
2018-08-20T23:53:26.157Z,1.50
2018-08-20T23:55:54.170Z,1.57
2018-08-20T23:58:22.566Z,1.00
